Terminal Aerodrome Forecast
Issued by NWS Atlanta, GA

Home | Current Version | Previous Version | Text Only | Print | Product List | Glossary On
Versions: 1 2 3 4 5 6 7 8 9 10 11 12 13 14 15 16 17 18 19 20 21
854
FTUS42 KFFC 260554
TAFCSG
TAF
KCSG 260554Z 2606/2706 VRB03KT 6SM -SHRA BKN035
     FM260800 15007KT P6SM VCSH SCT012 OVC025
     FM261300 17008KT P6SM VCSH OVC040
     FM261800 21009KT P6SM VCSH BKN050 PROB30 2618/2624 5SM TSRA
      BKN035CB
     FM270000 19004KT P6SM BKN050=

USA.gov is the U.S. government's official web portal to all federal, state and local government web resources and services.